Time;durP1;ratioP1;P1;durP2;ratioP2;P2;SDS_P1;SDS_P2;PMS_P1;PMS_P2;Temp;Humidity;BMP_temperature;BMP_pressure;BME280_temperature;BME280_humidity;BME280_pressure;Samples;Min_cycle;Max_cycle;Signal;HPM_P1;HPM_P2
2021/04/03 00:00:00;;;;;;;5.95;5.20;;;7.00;99.90;;;;;;5007920;28;20034;-73
2021/04/03 00:02:27;;;;;;;9.00;4.97;;;6.70;99.90;;;;;;4998003;28;20030;-71
2021/04/03 00:04:52;;;;;;;8.40;5.18;;;6.80;99.90;;;;;;4997844;28;20030;-72
2021/04/03 00:07:18;;;;;;;6.97;5.00;;;6.80;99.90;;;;;;5003068;28;20441;-72
2021/04/03 00:09:44;;;;;;;7.97;5.70;;;6.80;20.20;;;;;;5002649;28;20057;-71
2021/04/03 00:12:11;;;;;;;10.45;5.57;;;6.90;99.90;;;;;;5011445;28;20084;-72
2021/04/03 00:14:36;;;;;;;10.13;5.82;;;6.70;1.00;;;;;;5014772;28;20084;-70
2021/04/03 00:17:02;;;;;;;12.03;5.90;;;6.90;99.90;;;;;;5012057;28;20331;-72
2021/04/03 00:19:28;;;;;;;11.82;5.65;;;7.00;60.10;;;;;;5005883;28;20026;-72
2021/04/03 00:21:54;;;;;;;8.00;5.85;;;6.90;99.90;;;;;;5038613;22;20050;-75
2021/04/03 00:24:19;;;;;;;6.50;5.85;;;6.90;99.90;;;;;;5019208;28;20034;-77
2021/04/03 00:26:45;;;;;;;9.70;6.50;;;7.00;99.90;;;;;;5023551;28;20085;-78
2021/04/03 00:29:10;;;;;;;12.13;5.22;;;6.90;99.90;;;;;;5035835;28;20048;-76
2021/04/03 00:31:36;;;;;;;7.97;5.72;;;6.80;99.90;;;;;;5035574;28;20098;-76
2021/04/03 00:34:02;;;;;;;7.65;5.50;;;6.80;99.90;;;;;;5018397;28;20065;-76
2021/04/03 00:36:28;;;;;;;6.88;5.85;;;6.80;1.00;;;;;;5024405;28;20054;-75
2021/04/03 00:38:53;;;;;;;8.80;5.80;;;6.70;92.90;;;;;;5018130;28;20074;-75
2021/04/03 00:41:19;;;;;;;7.55;5.68;;;6.60;1.00;;;;;;5006929;28;20030;-76
2021/04/03 00:43:44;;;;;;;7.53;5.70;;;6.80;99.90;;;;;;5002642;28;20082;-77
2021/04/03 00:46:10;;;;;;;8.57;5.88;;;6.60;99.90;;;;;;5014429;28;20026;-76
2021/04/03 00:48:36;;;;;;;6.78;5.53;;;6.70;1.00;;;;;;5010687;28;20281;-75
2021/04/03 00:51:03;;;;;;;9.15;5.30;;;6.70;1.00;;;;;;5000275;28;20413;-76
2021/04/03 00:53:30;;;;;;;8.88;5.38;;;6.60;99.90;;;;;;4996800;28;20061;-76
2021/04/03 00:55:55;;;;;;;8.10;5.60;;;6.50;99.90;;;;;;5002918;28;20026;-75
2021/04/03 00:58:22;;;;;;;9.20;5.60;;;6.50;99.90;;;;;;5001069;28;20397;-76
2021/04/03 01:00:50;;;;;;;6.43;5.68;;;6.40;99.90;;;;;;5014980;28;20052;-76
2021/04/03 01:03:16;;;;;;;6.80;6.10;;;6.50;99.90;;;;;;5018539;28;20033;-76
2021/04/03 01:05:42;;;;;;;10.27;4.55;;;6.70;99.90;;;;;;5020531;28;20022;-75
2021/04/03 01:08:07;;;;;;;6.88;4.95;;;6.70;99.90;;;;;;5024000;28;20029;-76
2021/04/03 01:10:41;;;;;;;8.13;5.35;;;6.60;99.90;;;;;;5028292;28;20022;-75
2021/04/03 01:13:13;;;;;;;9.80;6.50;;;6.30;99.90;;;;;;5022445;28;20025;-76
2021/04/03 01:15:44;;;;;;;9.38;5.55;;;6.30;93.50;;;;;;5018394;28;20408;-76
2021/04/03 01:18:18;;;;;;;7.45;5.25;;;6.40;1.00;;;;;;5012716;28;20038;-75
2021/04/03 01:21:02;;;;;;;12.05;5.30;;;6.40;99.90;;;;;;5010314;28;20030;-76
2021/04/03 01:23:52;;;;;;;7.97;5.25;;;6.70;69.10;;;;;;5011434;28;20038;-76
2021/04/03 01:26:39;;;;;;;9.75;4.90;;;6.70;99.90;;;;;;5017936;28;20010;-76
2021/04/03 01:29:12;;;;;;;8.55;4.95;;;6.60;99.90;;;;;;5006430;28;20034;-76
2021/04/03 01:31:38;;;;;;;8.35;4.78;;;6.60;1.00;;;;;;5008722;28;20026;-76
2021/04/03 01:34:08;;;;;;;10.15;5.07;;;6.60;99.90;;;;;;5009262;28;20023;-76
2021/04/03 01:36:37;;;;;;;10.25;5.32;;;6.50;91.50;;;;;;5019354;28;20058;-75
2021/04/03 01:39:22;;;;;;;8.00;5.13;;;6.30;99.90;;;;;;5002632;28;20097;-78
2021/04/03 01:41:48;;;;;;;9.90;5.38;;;6.30;99.90;;;;;;5003213;28;20505;-77
2021/04/03 01:44:21;;;;;;;8.30;5.35;;;6.30;99.90;;;;;;5002788;28;20056;-76
2021/04/03 01:46:50;;;;;;;11.20;5.25;;;6.30;99.90;;;;;;5003725;28;20018;-77
2021/04/03 01:49:17;;;;;;;12.00;5.97;;;6.40;99.90;;;;;;5002225;28;20026;-76
2021/04/03 01:51:47;;;;;;;7.97;6.50;;;6.60;78.70;;;;;;5000186;28;20026;-76
2021/04/03 01:54:14;;;;;;;7.50;5.43;;;6.50;43.90;;;;;;5004300;28;20066;-77
2021/04/03 01:56:41;;;;;;;9.48;5.20;;;6.60;51.50;;;;;;4999765;28;20038;-77
2021/04/03 01:59:08;;;;;;;10.23;6.05;;;6.50;32.30;;;;;;5005181;28;20066;-76
2021/04/03 02:01:40;;;;;;;9.13;5.03;;;6.50;77.90;;;;;;4991986;28;20044;-76
2021/04/03 02:04:07;;;;;;;6.78;5.38;;;6.50;1.00;;;;;;5001559;28;20483;-76
2021/04/03 02:06:39;;;;;;;7.80;5.30;;;6.60;1.00;;;;;;4999832;28;20034;-77
2021/04/03 02:09:06;;;;;;;7.22;5.30;;;6.60;1.00;;;;;;5004520;28;20037;-77
2021/04/03 02:11:33;;;;;;;10.48;6.05;;;6.50;6.50;;;;;;5002782;28;20034;-76
2021/04/03 02:14:01;;;;;;;11.75;5.70;;;6.40;99.90;;;;;;4997652;28;20026;-75
2021/04/03 02:16:33;;;;;;;5.75;5.15;;;6.20;1.00;;;;;;5001318;28;20025;-76
2021/04/03 02:19:09;;;;;;;9.73;5.20;;;6.10;99.90;;;;;;5003145;28;20040;-76
2021/04/03 02:21:36;;;;;;;9.40;5.72;;;6.00;1.00;;;;;;4997205;28;20033;-76
2021/04/03 02:24:05;;;;;;;13.38;5.55;;;6.00;99.90;;;;;;5003625;28;20018;-76
2021/04/03 02:26:33;;;;;;;11.07;5.93;;;6.00;99.90;;;;;;4998547;28;20026;-77
2021/04/03 02:28:59;;;;;;;10.68;5.63;;;6.00;99.90;;;;;;5008749;28;20486;-76
2021/04/03 02:31:28;;;;;;;8.77;6.05;;;6.00;99.90;;;;;;4995269;28;20107;-77
2021/04/03 02:33:53;;;;;;;7.82;5.43;;;6.10;99.90;;;;;;5002684;28;20495;-76
2021/04/03 02:36:19;;;;;;;7.53;4.47;;;6.00;99.90;;;;;;4996572;28;20235;-75
2021/04/03 02:38:47;;;;;;;11.98;6.75;;;6.00;1.00;;;;;;4996512;28;20041;-76
2021/04/03 02:41:14;;;;;;;10.95;4.93;;;5.90;99.90;;;;;;5000328;28;21601;-77
2021/04/03 02:43:54;;;;;;;9.02;5.20;;;6.00;99.90;;;;;;4996980;28;20045;-76
2021/04/03 02:46:22;;;;;;;8.98;4.40;;;6.00;88.90;;;;;;5014879;28;20030;-75
2021/04/03 02:48:53;;;;;;;6.53;4.40;;;5.90;1.00;;;;;;4996005;28;20034;-77
2021/04/03 02:51:25;;;;;;;8.82;4.13;;;5.90;1.00;;;;;;4993441;28;20031;-75
2021/04/03 02:53:52;;;;;;;9.23;4.10;;;5.90;1.00;;;;;;4996162;28;20041;-75
2021/04/03 02:56:18;;;;;;;6.45;3.95;;;5.90;99.90;;;;;;5000091;28;20026;-77
2021/04/03 02:58:45;;;;;;;5.90;4.40;;;5.90;99.90;;;;;;4997848;28;20035;-76
2021/04/03 03:01:13;;;;;;;6.75;4.10;;;5.90;99.90;;;;;;5011619;28;20833;-76
2021/04/03 03:03:40;;;;;;;6.68;4.13;;;5.80;37.20;;;;;;4997775;28;20430;-76
2021/04/03 03:06:07;;;;;;;4.55;3.33;;;5.70;99.90;;;;;;4994182;28;20030;-77
2021/04/03 03:08:35;;;;;;;6.30;3.90;;;5.70;99.90;;;;;;5006287;28;20115;-76
2021/04/03 03:11:02;;;;;;;6.72;4.05;;;5.70;99.90;;;;;;5000286;28;20498;-75
2021/04/03 03:13:32;;;;;;;5.82;4.45;;;5.60;99.90;;;;;;4990957;28;20027;-75
2021/04/03 03:16:01;;;;;;;4.57;3.58;;;5.60;1.00;;;;;;4994601;28;20494;-75
2021/04/03 03:18:27;;;;;;;8.90;4.97;;;5.60;1.00;;;;;;4995607;28;20035;-77
2021/04/03 03:20:53;;;;;;;6.90;3.95;;;5.60;99.90;;;;;;4995524;28;20057;-76
2021/04/03 03:23:19;;;;;;;4.70;4.00;;;5.70;99.90;;;;;;5001680;28;20030;-75
2021/04/03 03:25:45;;;;;;;5.43;4.15;;;5.70;99.90;;;;;;4997412;28;20026;-75
2021/04/03 03:28:12;;;;;;;5.93;3.67;;;5.70;99.90;;;;;;4995676;28;20030;-75
2021/04/03 03:30:37;;;;;;;8.35;4.47;;;5.80;1.00;;;;;;4996068;28;20022;-75
2021/04/03 03:33:03;;;;;;;8.73;4.55;;;5.80;92.00;;;;;;4999423;28;20478;-76
2021/04/03 03:35:29;;;;;;;6.68;4.10;;;5.70;1.00;;;;;;5002027;28;20058;-75
2021/04/03 03:37:55;;;;;;;6.68;4.25;;;5.60;99.90;;;;;;5001380;28;20518;-76
2021/04/03 03:40:21;;;;;;;7.63;4.68;;;5.50;99.90;;;;;;5016727;28;20025;-75
2021/04/03 03:42:48;;;;;;;8.68;5.20;;;5.50;1.00;;;;;;4992882;28;20425;-75
2021/04/03 03:45:14;;;;;;;6.65;4.22;;;5.50;1.00;;;;;;4998043;28;20090;-76
2021/04/03 03:47:40;;;;;;;8.25;4.05;;;5.40;1.00;;;;;;4996764;28;20058;-75
2021/04/03 03:50:08;;;;;;;6.50;4.10;;;5.40;99.90;;;;;;4996772;28;20058;-76
2021/04/03 03:52:34;;;;;;;8.60;3.42;;;5.30;1.00;;;;;;4999372;28;20590;-75
2021/04/03 03:55:00;;;;;;;4.85;3.92;;;5.30;1.00;;;;;;4997452;28;20074;-75
2021/04/03 03:57:26;;;;;;;6.85;3.53;;;5.30;1.00;;;;;;4995763;28;20101;-76
2021/04/03 03:59:52;;;;;;;6.30;4.63;;;5.20;1.00;;;;;;5009408;28;20026;-76
2021/04/03 04:02:18;;;;;;;9.70;4.20;;;5.20;99.90;;;;;;5000682;28;20019;-76
2021/04/03 04:04:43;;;;;;;5.90;3.78;;;5.20;99.90;;;;;;4993588;28;20063;-76
2021/04/03 04:07:09;;;;;;;7.05;4.10;;;5.20;99.90;;;;;;4994401;28;20027;-76
2021/04/03 04:09:35;;;;;;;5.10;4.40;;;5.20;99.90;;;;;;5008738;28;20488;-75
2021/04/03 04:12:09;;;;;;;6.30;3.88;;;5.20;99.90;;;;;;4997752;28;20058;-75
2021/04/03 04:14:35;;;;;;;12.73;4.97;;;5.20;99.90;;;;;;5004442;28;20101;-74
2021/04/03 04:17:02;;;;;;;4.63;3.97;;;5.30;99.90;;;;;;5006888;28;20018;-75
2021/04/03 04:19:27;;;;;;;4.40;3.72;;;5.30;99.90;;;;;;5007366;28;20035;-76
2021/04/03 04:21:53;;;;;;;4.97;3.92;;;5.30;99.90;;;;;;5006690;28;20038;-76
2021/04/03 04:24:19;;;;;;;5.68;4.45;;;5.30;99.90;;;;;;5015522;28;20038;-75
2021/04/03 04:26:45;;;;;;;5.60;4.13;;;5.30;99.90;;;;;;5012353;28;20054;-74
2021/04/03 04:29:11;;;;;;;7.18;3.83;;;5.30;99.90;;;;;;5018585;28;20034;-75
2021/04/03 04:31:36;;;;;;;7.55;3.58;;;5.30;99.90;;;;;;5016482;28;20038;-76
2021/04/03 04:34:04;;;;;;;7.35;4.03;;;5.30;99.90;;;;;;5010193;28;20045;-76
2021/04/03 04:36:29;;;;;;;6.35;4.25;;;5.20;99.90;;;;;;5001814;28;20038;-76
2021/04/03 04:38:55;;;;;;;8.43;3.53;;;5.30;1.00;;;;;;5027071;28;20031;-75
2021/04/03 04:41:20;;;;;;;8.07;4.13;;;5.30;1.00;;;;;;5012305;28;20030;-76
2021/04/03 04:43:46;;;;;;;7.60;4.13;;;5.30;1.00;;;;;;5007574;28;20042;-75
2021/04/03 04:46:12;;;;;;;6.88;4.03;;;5.40;1.00;;;;;;5007211;28;20090;-75
2021/04/03 04:48:37;;;;;;;7.55;4.00;;;5.20;1.00;;;;;;5007221;28;20022;-76
2021/04/03 04:51:04;;;;;;;5.75;4.22;;;5.30;1.00;;;;;;5010591;28;20030;-76
2021/04/03 04:53:29;;;;;;;9.02;4.90;;;5.30;1.00;;;;;;5009388;28;20065;-76
2021/04/03 04:55:55;;;;;;;5.28;3.85;;;5.40;1.00;;;;;;5002815;28;20034;-76
2021/04/03 04:58:20;;;;;;;6.18;4.22;;;5.30;1.00;;;;;;4998501;28;20101;-76
2021/04/03 05:00:46;;;;;;;5.40;4.03;;;5.30;1.00;;;;;;4999095;28;20536;-75
2021/04/03 05:03:12;;;;;;;9.40;4.70;;;5.20;1.00;;;;;;4999653;28;20043;-76
2021/04/03 05:05:37;;;;;;;9.40;4.55;;;5.30;1.00;;;;;;5003416;28;20124;-75
2021/04/03 05:08:03;;;;;;;6.75;5.07;;;5.40;1.00;;;;;;5008964;28;20044;-76
2021/04/03 05:10:29;;;;;;;9.32;4.18;;;5.30;1.00;;;;;;5014892;28;20049;-76
2021/04/03 05:13:02;;;;;;;11.82;5.10;;;5.30;1.00;;;;;;5003916;28;20038;-76
2021/04/03 05:15:27;;;;;;;11.25;4.15;;;5.30;1.00;;;;;;4997748;28;20095;-77
2021/04/03 05:17:53;;;;;;;6.22;4.15;;;5.30;1.00;;;;;;4999435;28;20030;-77
2021/04/03 05:20:18;;;;;;;7.07;4.50;;;5.40;1.00;;;;;;4997344;28;20053;-76
2021/04/03 05:22:44;;;;;;;6.30;4.30;;;5.40;1.00;;;;;;5000716;28;20482;-76
2021/04/03 05:25:12;;;;;;;5.60;4.20;;;5.40;1.00;;;;;;4995284;28;20113;-77
2021/04/03 05:27:38;;;;;;;10.40;4.75;;;5.40;1.00;;;;;;4996422;28;20161;-76
2021/04/03 05:30:05;;;;;;;6.65;3.88;;;5.40;1.00;;;;;;4997847;28;20070;-77
2021/04/03 05:32:30;;;;;;;7.00;4.88;;;5.50;99.90;;;;;;4996173;28;20038;-76
2021/04/03 05:34:56;;;;;;;10.73;4.47;;;5.50;99.90;;;;;;4994800;28;20035;-76
2021/04/03 05:37:22;;;;;;;9.27;5.05;;;5.60;99.90;;;;;;4998104;28;20034;-76
2021/04/03 05:39:47;;;;;;;5.25;4.53;;;5.70;99.90;;;;;;4995765;28;20026;-76
2021/04/03 05:42:15;;;;;;;9.02;4.65;;;5.70;99.90;;;;;;4998686;28;20035;-76
2021/04/03 05:44:42;;;;;;;8.02;5.80;;;5.70;99.90;;;;;;4996630;28;20043;-77
2021/04/03 05:47:09;;;;;;;7.60;4.88;;;5.70;93.70;;;;;;5004940;28;20076;-76
2021/04/03 05:49:35;;;;;;;8.27;4.60;;;5.70;99.90;;;;;;4997595;28;20027;-76
2021/04/03 05:52:03;;;;;;;8.50;4.25;;;5.80;78.70;;;;;;4993892;28;20302;-76
2021/04/03 05:54:29;;;;;;;4.03;3.63;;;5.80;9.60;;;;;;4997782;28;20109;-76
2021/04/03 05:56:55;;;;;;;7.35;4.30;;;5.90;68.00;;;;;;4998792;28;20038;-77
2021/04/03 05:59:20;;;;;;;16.65;4.40;;;6.30;99.90;;;;;;4997664;28;20485;-76
2021/04/03 06:01:46;;;;;;;6.18;3.58;;;6.50;99.90;;;;;;4996847;28;20026;-76
2021/04/03 06:04:11;;;;;;;6.15;3.83;;;6.50;9.50;;;;;;5002149;28;20026;-76
2021/04/03 06:06:39;;;;;;;8.05;3.53;;;6.40;99.90;;;;;;4997756;28;20028;-76
2021/04/03 06:09:05;;;;;;;7.80;3.85;;;6.30;99.90;;;;;;5003919;28;20073;-76
2021/04/03 06:11:42;;;;;;;9.00;4.40;;;6.20;99.90;;;;;;4995031;28;20026;-77
2021/04/03 06:14:07;;;;;;;7.25;4.25;;;6.20;99.90;;;;;;4995568;28;20038;-76
2021/04/03 06:16:37;;;;;;;8.48;3.30;;;6.20;99.90;;;;;;4996953;28;20394;-76
2021/04/03 06:19:17;;;;;;;6.43;3.25;;;6.10;99.90;;;;;;4997519;28;20134;-76
2021/04/03 06:24:17;;;;;;;6.90;3.40;;;6.30;99.90;;;;;;4998048;28;20046;-72
2021/04/03 06:26:56;;;;;;;6.97;3.78;;;6.40;1.00;;;;;;5001678;28;20022;-72
2021/04/03 06:29:32;;;;;;;4.07;3.20;;;6.30;1.00;;;;;;4996735;28;20030;-72
2021/04/03 06:31:59;;;;;;;7.05;3.60;;;6.40;1.00;;;;;;5001761;28;20065;-72
2021/04/03 06:34:39;;;;;;;5.20;3.50;;;6.20;99.90;;;;;;4994238;28;20037;-73
2021/04/03 06:37:07;;;;;;;6.85;3.42;;;6.40;45.90;;;;;;4994837;28;20399;-71
2021/04/03 06:39:55;;;;;;;6.57;3.88;;;6.40;99.90;;;;;;4993091;28;20438;-72
2021/04/03 06:42:55;;;;;;;4.60;3.15;;;6.40;58.60;;;;;;4993172;28;20484;-72
2021/04/03 06:45:28;;;;;;;4.60;2.90;;;6.50;1.00;;;;;;4995687;28;20022;-72
2021/04/03 06:47:56;;;;;;;8.30;3.28;;;6.80;8.20;;;;;;4994087;28;20030;-72
2021/04/03 06:50:25;;;;;;;5.25;3.33;;;7.10;99.90;;;;;;4994539;28;20030;-72
2021/04/03 06:52:51;;;;;;;5.30;3.45;;;7.30;1.00;;;;;;4996338;28;20425;-71
2021/04/03 06:55:19;;;;;;;5.22;2.80;;;7.40;98.60;;;;;;4996056;28;20398;-71
2021/04/03 06:57:46;;;;;;;6.90;3.85;;;7.50;1.00;;;;;;4995660;28;20036;-72
2021/04/03 07:00:14;;;;;;;7.90;3.70;;;7.60;99.90;;;;;;4993042;28;20030;-71
2021/04/03 07:03:00;;;;;;;5.65;3.08;;;7.60;99.90;;;;;;4993195;28;20027;-72
2021/04/03 07:05:31;;;;;;;5.72;3.60;;;7.70;99.90;;;;;;4991670;28;20569;-72
2021/04/03 07:07:58;;;;;;;;;;;7.80;74.60;;;;;;4996380;28;20034;-72
2021/04/03 07:10:24;;;;;;;7.22;3.35;;;7.60;1.00;;;;;;4994865;28;19910;-72
2021/04/03 07:12:51;;;;;;;4.43;2.97;;;7.90;1.00;;;;;;4992440;28;20034;-71
2021/04/03 07:15:17;;;;;;;7.53;3.58;;;7.40;1.00;;;;;;4991786;28;20169;-72
2021/04/03 07:17:44;;;;;;;6.68;4.30;;;7.00;99.90;;;;;;4994028;28;20089;-72
2021/04/03 07:20:12;;;;;;;5.70;2.63;;;7.60;99.90;;;;;;4992902;28;20477;-71
2021/04/03 07:22:41;;;;;;;8.15;2.58;;;8.00;99.90;;;;;;4975197;28;20026;-71
2021/04/03 07:25:08;;;;;;;5.30;3.17;;;8.00;1.00;;;;;;4994663;28;20027;-72
2021/04/03 07:27:37;;;;;;;8.30;2.83;;;7.90;1.00;;;;;;4996151;28;20390;-72
2021/04/03 07:30:03;;;;;;;5.47;2.85;;;7.90;32.70;;;;;;4978176;28;20082;-72
2021/04/03 07:32:38;;;;;;;6.65;3.45;;;7.70;99.90;;;;;;4993142;28;20026;-71
2021/04/03 07:35:17;;;;;;;4.82;2.58;;;7.50;99.90;;;;;;4996116;28;20028;-71
2021/04/03 07:37:43;;;;;;;4.43;2.92;;;7.70;99.90;;;;;;4990171;28;20054;-72
2021/04/03 07:40:15;;;;;;;7.13;2.97;;;7.70;99.90;;;;;;4978328;28;20034;-72
2021/04/03 07:42:41;;;;;;;4.90;3.38;;;7.90;99.90;;;;;;5003907;28;20062;-72
2021/04/03 07:45:30;;;;;;;5.22;3.35;;;8.20;85.20;;;;;;4992984;28;20023;-71
2021/04/03 07:47:55;;;;;;;7.07;3.17;;;7.90;48.20;;;;;;4997463;28;20026;-72
2021/04/03 07:50:39;;;;;;;7.30;3.65;;;8.20;99.90;;;;;;4994595;28;20038;-71
2021/04/03 07:53:05;;;;;;;3.55;2.20;;;8.30;1.00;;;;;;4998689;28;20041;-72
2021/04/03 07:55:35;;;;;;;4.93;2.45;;;8.20;99.90;;;;;;4977927;28;20027;-72
2021/04/03 07:58:19;;;;;;;5.72;3.08;;;7.90;1.00;;;;;;4997082;28;20030;-73
2021/04/03 08:00:46;;;;;;;7.18;3.03;;;7.70;58.20;;;;;;4995565;28;20022;-72
2021/04/03 08:03:11;;;;;;;3.90;2.53;;;7.80;99.90;;;;;;4994486;28;20030;-72
2021/04/03 08:05:38;;;;;;;6.15;2.65;;;8.00;90.20;;;;;;4988242;28;20018;-73
2021/04/03 08:08:05;;;;;;;5.88;2.60;;;7.70;18.70;;;;;;4995599;28;20031;-74
2021/04/03 08:10:31;;;;;;;4.85;2.65;;;7.40;45.30;;;;;;4997819;28;20057;-73
2021/04/03 08:12:57;;;;;;;5.97;3.25;;;7.30;99.90;;;;;;4996774;28;20023;-73
2021/04/03 08:15:26;;;;;;;5.90;2.35;;;7.20;99.90;;;;;;4996117;28;20586;-73
2021/04/03 08:17:54;;;;;;;2.70;1.75;;;7.40;99.90;;;;;;4996576;28;20029;-73
2021/04/03 08:20:21;;;;;;;4.75;2.20;;;7.60;99.90;;;;;;4996388;28;20022;-74
2021/04/03 08:23:05;;;;;;;5.55;2.60;;;7.80;1.00;;;;;;4997801;28;20030;-73
2021/04/03 08:25:31;;;;;;;4.78;2.35;;;7.90;1.00;;;;;;5000227;28;20022;-72
2021/04/03 08:27:57;;;;;;;3.80;2.00;;;8.20;1.00;;;;;;5001257;28;20037;-72
2021/04/03 08:30:31;;;;;;;4.80;2.70;;;8.50;99.90;;;;;;4996646;28;20110;-72
2021/04/03 08:33:23;;;;;;;5.63;2.90;;;8.60;99.90;;;;;;4979068;28;20030;-72
2021/04/03 08:35:50;;;;;;;3.17;1.95;;;8.80;99.90;;;;;;4993827;28;20061;-74
2021/04/03 08:38:26;;;;;;;4.03;2.42;;;8.80;51.30;;;;;;5020054;28;20029;-75
2021/04/03 08:40:55;;;;;;;7.28;2.70;;;8.70;1.00;;;;;;5001245;28;20018;-73
2021/04/03 08:43:24;;;;;;;8.63;3.20;;;8.40;1.00;;;;;;4991860;28;20029;-73
2021/04/03 08:45:51;;;;;;;4.78;2.58;;;8.20;72.80;;;;;;5004158;28;20034;-71
2021/04/03 08:48:16;;;;;;;3.35;2.17;;;8.20;1.00;;;;;;5002328;28;20442;-72
2021/04/03 08:50:45;;;;;;;4.88;1.95;;;8.20;1.00;;;;;;5003121;28;20027;-72
2021/04/03 08:53:11;;;;;;;5.40;2.42;;;8.40;1.00;;;;;;4995346;28;20057;-74
2021/04/03 08:55:37;;;;;;;4.10;1.90;;;8.60;1.00;;;;;;4978771;28;20069;-72
2021/04/03 08:58:04;;;;;;;4.40;2.42;;;8.70;1.00;;;;;;4995202;28;20073;-73
2021/04/03 09:00:31;;;;;;;3.58;1.92;;;8.70;99.90;;;;;;4978053;28;20022;-74
2021/04/03 09:02:58;;;;;;;4.85;1.73;;;8.90;99.90;;;;;;4995253;28;20032;-75
2021/04/03 09:05:23;;;;;;;5.68;2.35;;;8.80;99.90;;;;;;4996157;28;20027;-74
2021/04/03 09:07:49;;;;;;;4.63;1.83;;;8.70;99.90;;;;;;4978783;28;20038;-73
2021/04/03 09:10:20;;;;;;;5.28;2.40;;;8.60;99.90;;;;;;4996016;28;20106;-73
2021/04/03 09:12:47;;;;;;;5.93;2.55;;;8.70;99.90;;;;;;4997668;28;20113;-72
2021/04/03 09:15:14;;;;;;;8.82;2.30;;;8.50;99.90;;;;;;5005281;28;20054;-72
2021/04/03 09:17:54;;;;;;;3.47;2.50;;;8.40;99.90;;;;;;4999618;28;20034;-73
2021/04/03 09:20:22;;;;;;;5.80;2.65;;;8.20;99.90;;;;;;4979014;28;20037;-74
2021/04/03 09:22:51;;;;;;;3.53;2.05;;;8.20;99.90;;;;;;4999213;28;20126;-74
2021/04/03 09:25:20;;;;;;;4.43;1.92;;;8.90;99.90;;;;;;4995710;28;20026;-74
2021/04/03 09:28:12;;;;;;;4.55;3.13;;;9.30;99.90;;;;;;5000621;28;20096;-73
2021/04/03 09:30:45;;;;;;;6.30;2.60;;;9.60;99.90;;;;;;5006580;28;20101;-71
2021/04/03 09:33:31;;;;;;;3.78;1.88;;;9.60;99.90;;;;;;5004909;28;20091;-77
2021/04/03 09:36:10;;;;;;;6.45;3.85;;;9.90;97.50;;;;;;4981945;28;20031;-71
2021/04/03 09:38:37;;;;;;;3.55;2.00;;;10.00;57.60;;;;;;4999485;28;20424;-72
2021/04/03 09:41:22;;;;;;;6.70;3.95;;;9.90;28.30;;;;;;5001360;28;20101;-70
2021/04/03 09:43:49;;;;;;;9.35;3.42;;;10.00;1.00;;;;;;5004353;28;20134;-71
2021/04/03 09:46:15;;;;;;;5.10;2.22;;;10.10;1.00;;;;;;5009050;28;20033;-70
2021/04/03 09:48:41;;;;;;;4.05;2.45;;;10.10;1.00;;;;;;5002191;28;20030;-70
2021/04/03 09:51:08;;;;;;;5.93;2.50;;;9.80;1.00;;;;;;4983948;28;20058;-71
2021/04/03 09:53:35;;;;;;;2.13;1.92;;;9.40;1.00;;;;;;4981531;28;20025;-72
2021/04/03 09:56:01;;;;;;;4.70;1.77;;;9.50;1.00;;;;;;4980838;28;20130;-69
2021/04/03 09:58:26;;;;;;;2.42;1.98;;;9.40;1.00;;;;;;4997766;28;20057;-69
2021/04/03 10:00:52;;;;;;;3.58;2.10;;;9.30;1.00;;;;;;5000111;28;20061;-68
2021/04/03 10:03:19;;;;;;;4.60;2.63;;;9.60;1.00;;;;;;4999666;28;20024;-69
2021/04/03 10:05:44;;;;;;;5.22;1.88;;;9.80;1.00;;;;;;5004074;28;20041;-69
2021/04/03 10:08:10;;;;;;;2.95;2.03;;;10.30;1.00;;;;;;5002242;28;20030;-69
2021/04/03 10:10:36;;;;;;;5.53;1.95;;;9.90;99.90;;;;;;4999288;28;20037;-69
2021/04/03 10:13:02;;;;;;;5.40;2.00;;;9.60;1.00;;;;;;4988560;28;20030;-68
2021/04/03 10:15:27;;;;;;;7.55;2.22;;;9.90;1.00;;;;;;4980463;28;20505;-69
2021/04/03 10:17:53;;;;;;;5.38;2.90;;;10.20;1.00;;;;;;5003050;28;20081;-69
2021/04/03 10:20:19;;;;;;;5.22;2.80;;;10.80;99.90;;;;;;4989019;28;20022;-69
2021/04/03 10:22:45;;;;;;;3.60;2.20;;;10.50;99.90;;;;;;5008243;28;20114;-71
2021/04/03 10:25:13;;;;;;;9.88;2.47;;;10.40;99.90;;;;;;5002815;28;20038;-70
2021/04/03 10:27:38;;;;;;;7.18;2.53;;;10.50;99.90;;;;;;4994945;28;20029;-70
2021/04/03 10:30:05;;;;;;;5.68;2.92;;;10.90;99.90;;;;;;5000777;28;20026;-69
2021/04/03 10:32:31;;;;;;;4.57;2.05;;;11.00;99.90;;;;;;4994780;28;20037;-71
2021/04/03 10:34:56;;;;;;;3.63;2.30;;;10.90;99.90;;;;;;4994490;28;20066;-70
2021/04/03 10:37:22;;;;;;;4.07;2.05;;;11.00;99.90;;;;;;5002100;28;20035;-71
2021/04/03 10:39:48;;;;;;;7.75;2.83;;;11.20;99.90;;;;;;5000202;28;20084;-72
2021/04/03 10:42:14;;;;;;;3.63;2.22;;;11.50;99.90;;;;;;5007995;28;20021;-70
2021/04/03 10:44:39;;;;;;;6.18;2.13;;;11.90;99.90;;;;;;5005746;28;20395;-70
2021/04/03 10:47:05;;;;;;;5.47;1.77;;;12.10;99.90;;;;;;5003417;28;20030;-68
2021/04/03 10:49:32;;;;;;;3.22;1.98;;;11.70;99.90;;;;;;5005784;28;20058;-72
2021/04/03 10:51:58;;;;;;;5.95;2.55;;;11.50;99.90;;;;;;4996547;28;20035;-72
2021/04/03 10:54:24;;;;;;;6.38;2.58;;;11.60;99.90;;;;;;4998657;28;20068;-76
2021/04/03 10:56:49;;;;;;;3.83;2.40;;;11.80;99.90;;;;;;4989540;28;20070;-72
2021/04/03 10:59:15;;;;;;;3.05;1.88;;;11.60;99.90;;;;;;4985236;28;20159;-71
2021/04/03 11:01:41;;;;;;;4.03;2.38;;;11.40;99.90;;;;;;4963818;28;20026;-73
2021/04/03 11:04:07;;;;;;;5.38;2.70;;;10.60;99.90;;;;;;4997152;28;20037;-70
2021/04/03 11:06:33;;;;;;;4.80;2.50;;;10.00;99.90;;;;;;4994041;28;20023;-72
2021/04/03 11:08:58;;;;;;;2.85;1.90;;;10.20;99.90;;;;;;4977777;28;20034;-70
2021/04/03 11:11:24;;;;;;;7.28;2.47;;;10.30;99.90;;;;;;4977683;28;20516;-71
2021/04/03 11:13:49;;;;;;;4.50;2.70;;;10.70;99.90;;;;;;4993291;28;20034;-72
2021/04/03 11:16:15;;;;;;;5.47;2.50;;;10.40;99.90;;;;;;4993817;28;20034;-69
2021/04/03 11:18:41;;;;;;;4.22;2.00;;;10.50;99.90;;;;;;4993555;28;20034;-72
2021/04/03 11:21:07;;;;;;;4.07;2.10;;;10.60;99.90;;;;;;5001586;28;20033;-70
2021/04/03 11:23:32;;;;;;;4.85;2.72;;;10.50;99.90;;;;;;4985790;28;20121;-73
2021/04/03 11:25:58;;;;;;;4.32;2.00;;;10.80;99.90;;;;;;4999530;28;20053;-71
2021/04/03 11:28:24;;;;;;;6.50;2.70;;;10.90;99.90;;;;;;4977881;28;20030;-72
2021/04/03 11:30:49;;;;;;;2.78;2.25;;;10.80;99.90;;;;;;4977490;28;20419;-79
2021/04/03 11:33:15;;;;;;;3.90;1.92;;;11.00;99.90;;;;;;4994462;28;20100;-74
2021/04/03 11:35:41;;;;;;;4.20;2.22;;;11.50;99.90;;;;;;4998720;28;20037;-74
2021/04/03 11:38:06;;;;;;;5.97;2.58;;;11.80;99.90;;;;;;5002571;28;20044;-74
2021/04/03 11:40:32;;;;;;;4.03;1.95;;;12.30;99.90;;;;;;5003178;28;20106;-80
2021/04/03 11:42:58;;;;;;;2.20;2.00;;;12.80;99.90;;;;;;4985843;28;20073;-76
2021/04/03 11:45:24;;;;;;;3.90;1.92;;;12.80;99.90;;;;;;4998073;28;20504;-72
2021/04/03 11:47:53;;;;;;;3.85;1.52;;;12.90;92.60;;;;;;4996694;28;20041;-70
2021/04/03 11:50:20;;;;;;;3.83;1.80;;;12.70;79.50;;;;;;4997747;28;20026;-71
2021/04/03 11:52:46;;;;;;;6.03;2.00;;;12.60;76.80;;;;;;4996830;28;20398;-71
2021/04/03 11:55:15;;;;;;;3.95;1.85;;;12.70;77.70;;;;;;4996928;28;20027;-72
2021/04/03 11:57:41;;;;;;;3.33;1.80;;;12.80;75.00;;;;;;4996638;28;20018;-73
2021/04/03 12:00:08;;;;;;;3.88;2.00;;;12.00;72.60;;;;;;4997099;28;20513;-73
2021/04/03 12:02:37;;;;;;;2.85;1.67;;;11.40;73.70;;;;;;5004581;28;20026;-72
2021/04/03 12:05:04;;;;;;;3.03;1.75;;;11.30;77.30;;;;;;4997441;28;20034;-73
2021/04/03 12:07:42;;;;;;;6.63;1.67;;;11.00;78.70;;;;;;4996198;28;20026;-71
2021/04/03 12:10:11;;;;;;;2.92;2.15;;;11.20;73.70;;;;;;5009709;28;20022;-69
2021/04/03 12:12:39;;;;;;;3.50;2.22;;;11.30;75.50;;;;;;5004953;28;20053;-69
2021/04/03 12:15:07;;;;;;;3.20;1.85;;;11.60;79.80;;;;;;4997228;28;20040;-70
2021/04/03 12:17:32;;;;;;;6.13;1.65;;;11.80;70.50;;;;;;4999884;28;20050;-68
2021/04/03 12:19:58;;;;;;;2.50;1.75;;;12.10;66.50;;;;;;4997577;28;20075;-69
2021/04/03 12:22:23;;;;;;;4.13;2.28;;;12.20;71.20;;;;;;5025846;23;20050;-70
2021/04/03 12:24:49;;;;;;;3.55;1.60;;;12.30;54.90;;;;;;5035720;28;20030;-70
2021/04/03 12:27:15;;;;;;;6.43;1.98;;;12.40;54.00;;;;;;5023318;28;20020;-70
2021/04/03 12:29:40;;;;;;;2.03;1.50;;;12.10;52.20;;;;;;5020738;28;20026;-72
2021/04/03 12:32:07;;;;;;;4.47;1.55;;;11.90;53.00;;;;;;5014457;28;20035;-71
2021/04/03 12:34:32;;;;;;;4.43;1.60;;;11.80;51.60;;;;;;5006047;28;20031;-73
2021/04/03 12:36:58;;;;;;;4.50;1.92;;;11.40;47.20;;;;;;5002060;28;20026;-71
2021/04/03 12:39:24;;;;;;;5.07;1.80;;;11.30;49.60;;;;;;5002102;28;20041;-71
2021/04/03 12:41:50;;;;;;;2.83;2.10;;;11.40;49.20;;;;;;5000206;28;20026;-71
2021/04/03 12:44:15;;;;;;;3.85;1.80;;;10.90;47.50;;;;;;5001966;28;20029;-70
2021/04/03 12:46:41;;;;;;;4.03;2.03;;;11.00;50.20;;;;;;5002167;28;20078;-73
2021/04/03 12:49:08;;;;;;;3.25;1.50;;;11.60;50.00;;;;;;5001508;28;20026;-71
2021/04/03 12:51:34;;;;;;;3.35;1.73;;;11.70;43.60;;;;;;4998819;28;20076;-70
2021/04/03 12:53:59;;;;;;;2.80;1.50;;;11.70;42.90;;;;;;5000404;28;20057;-69
2021/04/03 12:56:25;;;;;;;3.50;1.30;;;12.50;33.50;;;;;;5001338;28;20031;-72
2021/04/03 12:58:51;;;;;;;5.57;1.77;;;12.80;24.40;;;;;;5002290;28;20117;-72
2021/04/03 13:01:16;;;;;;;2.78;1.30;;;13.10;18.90;;;;;;5000124;28;20085;-72
2021/04/03 13:03:42;;;;;;;2.78;1.17;;;13.50;13.60;;;;;;5000230;28;20033;-71